sensor_id;sensor_type;location;lat;lon;timestamp;P1;durP1;ratioP1;P2;durP2;ratioP2
8230;SDS011;4156;50.908;6.974;2023-08-30T00:01:01;8.00;;;6.87;;
8230;SDS011;4156;50.908;6.974;2023-08-30T00:03:27;8.57;;;6.93;;
8230;SDS011;4156;50.908;6.974;2023-08-30T00:05:52;8.30;;;7.47;;
8230;SDS011;4156;50.908;6.974;2023-08-30T00:08:18;10.17;;;7.60;;
8230;SDS011;4156;50.908;6.974;2023-08-30T00:10:48;8.77;;;7.07;;
8230;SDS011;4156;50.908;6.974;2023-08-30T00:13:14;8.20;;;7.40;;
8230;SDS011;4156;50.908;6.974;2023-08-30T00:15:39;8.97;;;7.10;;
8230;SDS011;4156;50.908;6.974;2023-08-30T00:18:05;7.97;;;6.90;;
8230;SDS011;4156;50.908;6.974;2023-08-30T00:20:31;8.43;;;7.63;;
8230;SDS011;4156;50.908;6.974;2023-08-30T00:22:56;8.20;;;7.27;;
8230;SDS011;4156;50.908;6.974;2023-08-30T00:25:22;8.90;;;6.83;;
8230;SDS011;4156;50.908;6.974;2023-08-30T00:27:47;7.57;;;6.40;;
8230;SDS011;4156;50.908;6.974;2023-08-30T00:30:13;9.07;;;6.77;;
8230;SDS011;4156;50.908;6.974;2023-08-30T00:32:38;10.17;;;6.90;;
8230;SDS011;4156;50.908;6.974;2023-08-30T00:35:04;8.90;;;6.40;;
8230;SDS011;4156;50.908;6.974;2023-08-30T00:37:30;6.93;;;6.23;;
8230;SDS011;4156;50.908;6.974;2023-08-30T00:39:55;6.83;;;5.90;;
8230;SDS011;4156;50.908;6.974;2023-08-30T00:42:21;7.70;;;6.67;;
8230;SDS011;4156;50.908;6.974;2023-08-30T00:44:46;9.40;;;6.63;;
8230;SDS011;4156;50.908;6.974;2023-08-30T00:47:12;7.67;;;6.43;;
8230;SDS011;4156;50.908;6.974;2023-08-30T00:49:38;6.77;;;5.93;;
8230;SDS011;4156;50.908;6.974;2023-08-30T00:52:06;8.67;;;6.00;;
8230;SDS011;4156;50.908;6.974;2023-08-30T00:54:34;10.37;;;6.47;;
8230;SDS011;4156;50.908;6.974;2023-08-30T00:57:00;7.10;;;6.10;;
8230;SDS011;4156;50.908;6.974;2023-08-30T00:59:27;6.67;;;6.00;;
8230;SDS011;4156;50.908;6.974;2023-08-30T01:01:55;8.77;;;6.37;;
8230;SDS011;4156;50.908;6.974;2023-08-30T01:04:21;8.43;;;6.07;;
8230;SDS011;4156;50.908;6.974;2023-08-30T01:06:47;7.57;;;6.43;;
8230;SDS011;4156;50.908;6.974;2023-08-30T01:09:13;7.37;;;6.57;;
8230;SDS011;4156;50.908;6.974;2023-08-30T01:11:43;7.70;;;6.80;;
8230;SDS011;4156;50.908;6.974;2023-08-30T01:14:48;9.30;;;6.57;;
8230;SDS011;4156;50.908;6.974;2023-08-30T01:17:24;6.97;;;6.10;;
8230;SDS011;4156;50.908;6.974;2023-08-30T01:20:01;7.40;;;6.20;;
8230;SDS011;4156;50.908;6.974;2023-08-30T01:28:01;6.73;;;5.60;;
8230;SDS011;4156;50.908;6.974;2023-08-30T01:30:29;7.97;;;5.77;;
8230;SDS011;4156;50.908;6.974;2023-08-30T01:32:57;9.97;;;6.00;;
8230;SDS011;4156;50.908;6.974;2023-08-30T01:35:25;6.97;;;5.80;;
8230;SDS011;4156;50.908;6.974;2023-08-30T01:37:57;7.60;;;6.10;;
8230;SDS011;4156;50.908;6.974;2023-08-30T01:40:24;6.53;;;5.77;;
8230;SDS011;4156;50.908;6.974;2023-08-30T01:42:51;9.10;;;6.50;;
8230;SDS011;4156;50.908;6.974;2023-08-30T01:45:18;7.30;;;6.60;;
8230;SDS011;4156;50.908;6.974;2023-08-30T01:47:46;6.97;;;5.83;;
8230;SDS011;4156;50.908;6.974;2023-08-30T01:50:12;8.00;;;6.27;;
8230;SDS011;4156;50.908;6.974;2023-08-30T01:52:38;8.97;;;6.07;;
8230;SDS011;4156;50.908;6.974;2023-08-30T01:55:05;8.23;;;6.20;;
8230;SDS011;4156;50.908;6.974;2023-08-30T01:57:33;7.53;;;6.17;;
8230;SDS011;4156;50.908;6.974;2023-08-30T01:59:59;7.27;;;6.57;;
8230;SDS011;4156;50.908;6.974;2023-08-30T02:02:28;10.73;;;6.20;;
8230;SDS011;4156;50.908;6.974;2023-08-30T02:04:54;9.17;;;6.67;;
8230;SDS011;4156;50.908;6.974;2023-08-30T02:07:32;7.70;;;6.63;;
8230;SDS011;4156;50.908;6.974;2023-08-30T02:10:12;8.47;;;6.60;;
8230;SDS011;4156;50.908;6.974;2023-08-30T02:12:47;9.53;;;6.30;;
8230;SDS011;4156;50.908;6.974;2023-08-30T02:15:14;9.93;;;6.73;;
8230;SDS011;4156;50.908;6.974;2023-08-30T02:17:42;6.80;;;6.10;;
8230;SDS011;4156;50.908;6.974;2023-08-30T02:20:09;7.77;;;5.97;;
8230;SDS011;4156;50.908;6.974;2023-08-30T02:22:35;8.37;;;6.53;;
8230;SDS011;4156;50.908;6.974;2023-08-30T02:25:01;10.13;;;6.80;;
8230;SDS011;4156;50.908;6.974;2023-08-30T02:27:32;9.33;;;6.37;;
8230;SDS011;4156;50.908;6.974;2023-08-30T02:29:59;7.70;;;6.80;;
8230;SDS011;4156;50.908;6.974;2023-08-30T02:32:25;6.90;;;6.20;;
8230;SDS011;4156;50.908;6.974;2023-08-30T02:34:51;6.93;;;6.20;;
8230;SDS011;4156;50.908;6.974;2023-08-30T02:37:17;7.83;;;6.80;;
8230;SDS011;4156;50.908;6.974;2023-08-30T02:39:43;8.67;;;6.80;;
8230;SDS011;4156;50.908;6.974;2023-08-30T02:42:09;8.17;;;6.63;;
8230;SDS011;4156;50.908;6.974;2023-08-30T02:44:34;7.00;;;6.30;;
8230;SDS011;4156;50.908;6.974;2023-08-30T02:47:00;7.13;;;6.37;;
8230;SDS011;4156;50.908;6.974;2023-08-30T02:49:25;7.43;;;6.00;;
8230;SDS011;4156;50.908;6.974;2023-08-30T02:51:51;6.67;;;5.30;;
8230;SDS011;4156;50.908;6.974;2023-08-30T02:54:17;7.97;;;6.07;;
8230;SDS011;4156;50.908;6.974;2023-08-30T02:56:44;7.03;;;5.70;;
8230;SDS011;4156;50.908;6.974;2023-08-30T02:59:10;7.10;;;6.40;;
8230;SDS011;4156;50.908;6.974;2023-08-30T03:01:36;7.37;;;5.40;;
8230;SDS011;4156;50.908;6.974;2023-08-30T03:04:04;7.57;;;6.17;;
8230;SDS011;4156;50.908;6.974;2023-08-30T03:06:30;7.03;;;5.53;;
8230;SDS011;4156;50.908;6.974;2023-08-30T03:08:57;7.63;;;5.17;;
8230;SDS011;4156;50.908;6.974;2023-08-30T03:11:22;6.87;;;5.03;;
8230;SDS011;4156;50.908;6.974;2023-08-30T03:13:48;7.43;;;5.17;;
8230;SDS011;4156;50.908;6.974;2023-08-30T03:16:14;11.57;;;5.80;;
8230;SDS011;4156;50.908;6.974;2023-08-30T03:18:40;6.47;;;5.20;;
8230;SDS011;4156;50.908;6.974;2023-08-30T03:21:06;7.90;;;5.50;;
8230;SDS011;4156;50.908;6.974;2023-08-30T03:23:33;5.73;;;5.13;;
8230;SDS011;4156;50.908;6.974;2023-08-30T03:25:59;6.43;;;5.57;;
8230;SDS011;4156;50.908;6.974;2023-08-30T03:28:25;6.90;;;4.80;;
8230;SDS011;4156;50.908;6.974;2023-08-30T03:30:52;7.60;;;5.03;;
8230;SDS011;4156;50.908;6.974;2023-08-30T03:33:18;7.93;;;5.37;;
8230;SDS011;4156;50.908;6.974;2023-08-30T03:35:43;5.80;;;4.73;;
8230;SDS011;4156;50.908;6.974;2023-08-30T03:38:09;5.77;;;4.60;;
8230;SDS011;4156;50.908;6.974;2023-08-30T03:40:34;6.00;;;5.00;;
8230;SDS011;4156;50.908;6.974;2023-08-30T03:43:00;5.40;;;4.90;;
8230;SDS011;4156;50.908;6.974;2023-08-30T03:45:25;8.33;;;5.13;;
8230;SDS011;4156;50.908;6.974;2023-08-30T03:47:51;6.23;;;4.77;;
8230;SDS011;4156;50.908;6.974;2023-08-30T03:50:17;6.57;;;4.87;;
8230;SDS011;4156;50.908;6.974;2023-08-30T03:52:42;5.33;;;4.60;;
8230;SDS011;4156;50.908;6.974;2023-08-30T03:55:08;5.60;;;4.70;;
8230;SDS011;4156;50.908;6.974;2023-08-30T03:57:33;4.77;;;4.30;;
8230;SDS011;4156;50.908;6.974;2023-08-30T03:59:59;4.67;;;4.13;;
8230;SDS011;4156;50.908;6.974;2023-08-30T04:02:25;6.33;;;4.60;;
8230;SDS011;4156;50.908;6.974;2023-08-30T04:04:50;6.20;;;4.87;;
8230;SDS011;4156;50.908;6.974;2023-08-30T04:07:16;5.33;;;4.80;;
8230;SDS011;4156;50.908;6.974;2023-08-30T04:09:41;5.67;;;5.17;;
8230;SDS011;4156;50.908;6.974;2023-08-30T04:12:07;5.93;;;4.63;;
8230;SDS011;4156;50.908;6.974;2023-08-30T04:14:32;6.20;;;4.97;;
8230;SDS011;4156;50.908;6.974;2023-08-30T04:16:59;7.27;;;5.20;;
8230;SDS011;4156;50.908;6.974;2023-08-30T04:19:24;6.47;;;5.10;;
8230;SDS011;4156;50.908;6.974;2023-08-30T04:21:50;8.30;;;5.07;;
8230;SDS011;4156;50.908;6.974;2023-08-30T04:24:15;5.93;;;5.30;;
8230;SDS011;4156;50.908;6.974;2023-08-30T04:26:41;5.70;;;5.10;;
8230;SDS011;4156;50.908;6.974;2023-08-30T04:29:07;6.03;;;5.43;;
8230;SDS011;4156;50.908;6.974;2023-08-30T04:31:32;6.53;;;5.93;;
8230;SDS011;4156;50.908;6.974;2023-08-30T04:33:58;5.93;;;5.03;;
8230;SDS011;4156;50.908;6.974;2023-08-30T04:36:23;5.03;;;4.47;;
8230;SDS011;4156;50.908;6.974;2023-08-30T04:38:49;4.87;;;4.30;;
8230;SDS011;4156;50.908;6.974;2023-08-30T04:41:14;5.27;;;4.77;;
8230;SDS011;4156;50.908;6.974;2023-08-30T04:43:40;6.27;;;5.30;;
8230;SDS011;4156;50.908;6.974;2023-08-30T04:46:05;6.97;;;5.00;;
8230;SDS011;4156;50.908;6.974;2023-08-30T04:48:31;6.07;;;4.97;;
8230;SDS011;4156;50.908;6.974;2023-08-30T04:51:03;4.70;;;4.30;;
8230;SDS011;4156;50.908;6.974;2023-08-30T04:53:29;5.43;;;4.53;;
8230;SDS011;4156;50.908;6.974;2023-08-30T04:55:55;6.47;;;5.10;;
8230;SDS011;4156;50.908;6.974;2023-08-30T04:58:21;5.23;;;4.73;;
8230;SDS011;4156;50.908;6.974;2023-08-30T05:00:46;5.50;;;5.00;;
8230;SDS011;4156;50.908;6.974;2023-08-30T05:03:12;5.83;;;4.20;;
8230;SDS011;4156;50.908;6.974;2023-08-30T05:05:37;6.27;;;5.20;;
8230;SDS011;4156;50.908;6.974;2023-08-30T05:08:03;5.20;;;4.70;;
8230;SDS011;4156;50.908;6.974;2023-08-30T05:10:29;6.13;;;5.10;;
8230;SDS011;4156;50.908;6.974;2023-08-30T05:12:54;5.23;;;4.73;;
8230;SDS011;4156;50.908;6.974;2023-08-30T05:15:20;5.63;;;4.47;;
8230;SDS011;4156;50.908;6.974;2023-08-30T05:17:46;5.30;;;4.80;;
8230;SDS011;4156;50.908;6.974;2023-08-30T05:20:12;5.37;;;4.37;;
8230;SDS011;4156;50.908;6.974;2023-08-30T05:22:38;6.43;;;4.57;;
8230;SDS011;4156;50.908;6.974;2023-08-30T05:25:03;7.17;;;4.80;;
8230;SDS011;4156;50.908;6.974;2023-08-30T05:27:29;7.40;;;4.90;;
8230;SDS011;4156;50.908;6.974;2023-08-30T05:29:55;6.80;;;4.80;;
8230;SDS011;4156;50.908;6.974;2023-08-30T05:32:21;4.93;;;4.43;;
8230;SDS011;4156;50.908;6.974;2023-08-30T05:34:46;5.70;;;5.10;;
8230;SDS011;4156;50.908;6.974;2023-08-30T05:37:12;7.40;;;4.70;;
8230;SDS011;4156;50.908;6.974;2023-08-30T05:39:38;5.60;;;4.60;;
8230;SDS011;4156;50.908;6.974;2023-08-30T05:42:04;8.07;;;5.27;;
8230;SDS011;4156;50.908;6.974;2023-08-30T05:44:30;5.63;;;4.60;;
8230;SDS011;4156;50.908;6.974;2023-08-30T05:46:55;6.73;;;4.80;;
8230;SDS011;4156;50.908;6.974;2023-08-30T05:49:21;7.00;;;5.00;;
8230;SDS011;4156;50.908;6.974;2023-08-30T05:51:46;6.93;;;5.20;;
8230;SDS011;4156;50.908;6.974;2023-08-30T05:54:12;6.40;;;5.03;;
8230;SDS011;4156;50.908;6.974;2023-08-30T05:56:38;6.17;;;4.70;;
8230;SDS011;4156;50.908;6.974;2023-08-30T05:59:04;9.93;;;5.50;;
8230;SDS011;4156;50.908;6.974;2023-08-30T06:01:29;7.20;;;4.67;;
8230;SDS011;4156;50.908;6.974;2023-08-30T06:03:55;7.73;;;4.87;;
8230;SDS011;4156;50.908;6.974;2023-08-30T06:06:20;9.80;;;4.97;;
8230;SDS011;4156;50.908;6.974;2023-08-30T06:08:46;6.93;;;5.00;;
8230;SDS011;4156;50.908;6.974;2023-08-30T06:11:11;5.87;;;5.23;;
8230;SDS011;4156;50.908;6.974;2023-08-30T06:13:37;7.87;;;5.67;;
8230;SDS011;4156;50.908;6.974;2023-08-30T06:16:03;6.13;;;4.50;;
8230;SDS011;4156;50.908;6.974;2023-08-30T06:18:32;5.73;;;4.80;;
8230;SDS011;4156;50.908;6.974;2023-08-30T06:20:57;6.50;;;4.60;;
8230;SDS011;4156;50.908;6.974;2023-08-30T06:23:23;5.90;;;4.90;;
8230;SDS011;4156;50.908;6.974;2023-08-30T06:25:55;5.63;;;4.87;;
8230;SDS011;4156;50.908;6.974;2023-08-30T06:28:21;6.00;;;4.63;;
8230;SDS011;4156;50.908;6.974;2023-08-30T06:30:47;6.67;;;5.10;;
8230;SDS011;4156;50.908;6.974;2023-08-30T06:33:13;7.47;;;5.57;;
8230;SDS011;4156;50.908;6.974;2023-08-30T06:35:38;6.87;;;4.93;;
8230;SDS011;4156;50.908;6.974;2023-08-30T06:38:04;5.50;;;4.60;;
8230;SDS011;4156;50.908;6.974;2023-08-30T06:40:30;7.47;;;4.90;;
8230;SDS011;4156;50.908;6.974;2023-08-30T06:42:56;5.53;;;5.00;;
8230;SDS011;4156;50.908;6.974;2023-08-30T06:45:22;6.97;;;5.37;;
8230;SDS011;4156;50.908;6.974;2023-08-30T06:47:48;5.83;;;4.80;;
8230;SDS011;4156;50.908;6.974;2023-08-30T06:50:14;7.73;;;5.10;;
8230;SDS011;4156;50.908;6.974;2023-08-30T06:52:40;5.70;;;4.90;;
8230;SDS011;4156;50.908;6.974;2023-08-30T06:55:05;6.43;;;5.60;;
8230;SDS011;4156;50.908;6.974;2023-08-30T06:57:31;5.90;;;4.83;;
8230;SDS011;4156;50.908;6.974;2023-08-30T06:59:57;5.13;;;4.63;;
8230;SDS011;4156;50.908;6.974;2023-08-30T07:02:24;5.50;;;4.87;;
8230;SDS011;4156;50.908;6.974;2023-08-30T07:04:50;7.03;;;5.10;;
8230;SDS011;4156;50.908;6.974;2023-08-30T07:07:16;5.03;;;4.53;;
8230;SDS011;4156;50.908;6.974;2023-08-30T07:09:41;6.77;;;4.87;;
8230;SDS011;4156;50.908;6.974;2023-08-30T07:12:07;12.97;;;4.87;;
8230;SDS011;4156;50.908;6.974;2023-08-30T07:14:33;5.73;;;4.80;;
8230;SDS011;4156;50.908;6.974;2023-08-30T07:16:58;6.63;;;4.77;;
8230;SDS011;4156;50.908;6.974;2023-08-30T07:19:24;5.67;;;4.70;;
8230;SDS011;4156;50.908;6.974;2023-08-30T07:21:50;5.33;;;4.60;;
8230;SDS011;4156;50.908;6.974;2023-08-30T07:24:16;6.23;;;4.80;;
8230;SDS011;4156;50.908;6.974;2023-08-30T07:26:41;6.73;;;5.50;;
8230;SDS011;4156;50.908;6.974;2023-08-30T07:29:08;7.00;;;5.00;;
8230;SDS011;4156;50.908;6.974;2023-08-30T07:31:34;5.00;;;4.30;;
8230;SDS011;4156;50.908;6.974;2023-08-30T07:33:59;4.90;;;4.40;;
8230;SDS011;4156;50.908;6.974;2023-08-30T07:36:26;4.73;;;4.17;;
8230;SDS011;4156;50.908;6.974;2023-08-30T07:38:53;4.10;;;3.43;;
8230;SDS011;4156;50.908;6.974;2023-08-30T07:41:19;8.23;;;3.80;;
8230;SDS011;4156;50.908;6.974;2023-08-30T07:43:44;5.53;;;3.80;;
8230;SDS011;4156;50.908;6.974;2023-08-30T07:46:10;5.90;;;3.73;;
8230;SDS011;4156;50.908;6.974;2023-08-30T07:48:35;7.23;;;4.03;;
8230;SDS011;4156;50.908;6.974;2023-08-30T07:51:01;5.83;;;3.33;;
8230;SDS011;4156;50.908;6.974;2023-08-30T07:53:27;3.77;;;2.70;;
8230;SDS011;4156;50.908;6.974;2023-08-30T07:55:52;4.27;;;3.10;;
8230;SDS011;4156;50.908;6.974;2023-08-30T07:58:18;4.13;;;3.40;;
8230;SDS011;4156;50.908;6.974;2023-08-30T08:00:43;4.57;;;3.27;;
8230;SDS011;4156;50.908;6.974;2023-08-30T08:03:09;4.27;;;2.90;;
8230;SDS011;4156;50.908;6.974;2023-08-30T08:05:37;4.10;;;2.90;;
8230;SDS011;4156;50.908;6.974;2023-08-30T08:08:03;3.67;;;2.67;;
8230;SDS011;4156;50.908;6.974;2023-08-30T08:10:32;4.30;;;2.43;;
8230;SDS011;4156;50.908;6.974;2023-08-30T08:12:58;3.60;;;2.73;;
8230;SDS011;4156;50.908;6.974;2023-08-30T08:15:24;2.50;;;2.30;;
8230;SDS011;4156;50.908;6.974;2023-08-30T08:17:50;3.30;;;2.43;;
8230;SDS011;4156;50.908;6.974;2023-08-30T08:20:15;2.90;;;2.40;;
8230;SDS011;4156;50.908;6.974;2023-08-30T08:22:41;4.03;;;2.20;;
8230;SDS011;4156;50.908;6.974;2023-08-30T08:25:06;3.50;;;2.47;;
8230;SDS011;4156;50.908;6.974;2023-08-30T08:27:34;3.00;;;2.57;;
8230;SDS011;4156;50.908;6.974;2023-08-30T08:30:01;3.80;;;2.63;;
8230;SDS011;4156;50.908;6.974;2023-08-30T08:32:28;4.50;;;2.87;;
8230;SDS011;4156;50.908;6.974;2023-08-30T08:34:55;4.93;;;2.53;;
8230;SDS011;4156;50.908;6.974;2023-08-30T08:37:21;2.90;;;2.30;;
8230;SDS011;4156;50.908;6.974;2023-08-30T08:39:47;3.80;;;2.40;;
8230;SDS011;4156;50.908;6.974;2023-08-30T08:42:16;4.50;;;2.30;;
8230;SDS011;4156;50.908;6.974;2023-08-30T08:44:43;4.00;;;2.27;;
8230;SDS011;4156;50.908;6.974;2023-08-30T08:47:11;2.57;;;2.30;;
8230;SDS011;4156;50.908;6.974;2023-08-30T08:49:36;3.40;;;2.37;;
8230;SDS011;4156;50.908;6.974;2023-08-30T08:52:02;3.30;;;2.10;;
8230;SDS011;4156;50.908;6.974;2023-08-30T08:54:29;2.53;;;2.17;;
8230;SDS011;4156;50.908;6.974;2023-08-30T08:56:55;2.17;;;1.90;;
8230;SDS011;4156;50.908;6.974;2023-08-30T08:59:21;2.80;;;2.03;;
8230;SDS011;4156;50.908;6.974;2023-08-30T09:01:48;2.60;;;2.10;;
8230;SDS011;4156;50.908;6.974;2023-08-30T09:04:14;2.90;;;2.20;;
8230;SDS011;4156;50.908;6.974;2023-08-30T09:06:40;2.80;;;2.00;;
8230;SDS011;4156;50.908;6.974;2023-08-30T09:09:06;2.63;;;1.87;;
8230;SDS011;4156;50.908;6.974;2023-08-30T09:11:33;2.80;;;2.00;;
8230;SDS011;4156;50.908;6.974;2023-08-30T09:13:59;3.33;;;2.10;;
8230;SDS011;4156;50.908;6.974;2023-08-30T09:16:25;3.83;;;2.13;;
8230;SDS011;4156;50.908;6.974;2023-08-30T09:19:00;2.77;;;2.00;;
8230;SDS011;4156;50.908;6.974;2023-08-30T09:21:26;3.20;;;2.27;;
8230;SDS011;4156;50.908;6.974;2023-08-30T09:24:05;2.63;;;2.10;;
8230;SDS011;4156;50.908;6.974;2023-08-30T09:26:32;2.90;;;2.10;;
8230;SDS011;4156;50.908;6.974;2023-08-30T09:29:01;2.50;;;2.10;;
8230;SDS011;4156;50.908;6.974;2023-08-30T09:31:37;3.33;;;2.20;;
8230;SDS011;4156;50.908;6.974;2023-08-30T09:34:07;4.90;;;2.20;;
8230;SDS011;4156;50.908;6.974;2023-08-30T09:39:08;3.40;;;2.47;;
8230;SDS011;4156;50.908;6.974;2023-08-30T09:41:36;6.10;;;2.70;;
8230;SDS011;4156;50.908;6.974;2023-08-30T09:44:11;4.70;;;2.70;;
8230;SDS011;4156;50.908;6.974;2023-08-30T09:46:41;6.10;;;2.70;;
8230;SDS011;4156;50.908;6.974;2023-08-30T09:49:11;3.63;;;2.50;;
8230;SDS011;4156;50.908;6.974;2023-08-30T09:51:38;3.77;;;2.63;;
8230;SDS011;4156;50.908;6.974;2023-08-30T09:54:07;3.73;;;2.40;;
8230;SDS011;4156;50.908;6.974;2023-08-30T09:56:40;3.47;;;2.80;;
8230;SDS011;4156;50.908;6.974;2023-08-30T09:59:06;5.50;;;3.03;;
8230;SDS011;4156;50.908;6.974;2023-08-30T10:01:33;4.13;;;2.27;;
8230;SDS011;4156;50.908;6.974;2023-08-30T10:03:59;4.20;;;2.40;;
8230;SDS011;4156;50.908;6.974;2023-08-30T10:06:28;3.90;;;2.63;;
8230;SDS011;4156;50.908;6.974;2023-08-30T10:08:54;2.93;;;2.03;;
8230;SDS011;4156;50.908;6.974;2023-08-30T10:11:21;3.50;;;2.63;;
8230;SDS011;4156;50.908;6.974;2023-08-30T10:13:48;3.87;;;2.50;;
8230;SDS011;4156;50.908;6.974;2023-08-30T10:16:20;3.83;;;2.70;;
8230;SDS011;4156;50.908;6.974;2023-08-30T10:18:50;3.17;;;2.30;;
8230;SDS011;4156;50.908;6.974;2023-08-30T10:21:19;4.13;;;2.57;;
8230;SDS011;4156;50.908;6.974;2023-08-30T10:23:45;3.07;;;2.77;;
8230;SDS011;4156;50.908;6.974;2023-08-30T10:26:13;2.97;;;2.33;;
8230;SDS011;4156;50.908;6.974;2023-08-30T10:28:41;3.10;;;2.60;;
8230;SDS011;4156;50.908;6.974;2023-08-30T10:31:07;3.33;;;2.67;;
8230;SDS011;4156;50.908;6.974;2023-08-30T10:33:44;5.10;;;2.80;;
8230;SDS011;4156;50.908;6.974;2023-08-30T10:36:20;3.13;;;2.70;;
8230;SDS011;4156;50.908;6.974;2023-08-30T10:38:50;3.17;;;2.47;;
8230;SDS011;4156;50.908;6.974;2023-08-30T10:41:20;4.27;;;2.70;;
8230;SDS011;4156;50.908;6.974;2023-08-30T10:43:49;3.37;;;2.47;;
8230;SDS011;4156;50.908;6.974;2023-08-30T10:46:16;3.33;;;2.30;;
8230;SDS011;4156;50.908;6.974;2023-08-30T10:48:42;4.80;;;2.80;;
8230;SDS011;4156;50.908;6.974;2023-08-30T10:51:20;6.03;;;2.73;;
8230;SDS011;4156;50.908;6.974;2023-08-30T10:53:59;2.70;;;2.30;;
8230;SDS011;4156;50.908;6.974;2023-08-30T10:56:28;3.03;;;2.20;;
8230;SDS011;4156;50.908;6.974;2023-08-30T10:58:55;2.33;;;2.13;;
8230;SDS011;4156;50.908;6.974;2023-08-30T11:01:21;4.23;;;2.50;;
8230;SDS011;4156;50.908;6.974;2023-08-30T11:03:48;4.83;;;2.20;;
8230;SDS011;4156;50.908;6.974;2023-08-30T11:06:14;3.57;;;2.27;;
8230;SDS011;4156;50.908;6.974;2023-08-30T11:08:43;2.47;;;2.27;;
8230;SDS011;4156;50.908;6.974;2023-08-30T11:11:09;2.57;;;2.30;;
8230;SDS011;4156;50.908;6.974;2023-08-30T11:13:37;2.70;;;2.00;;
8230;SDS011;4156;50.908;6.974;2023-08-30T11:16:02;3.00;;;2.07;;
8230;SDS011;4156;50.908;6.974;2023-08-30T11:18:38;3.43;;;2.27;;
8230;SDS011;4156;50.908;6.974;2023-08-30T11:21:04;3.17;;;2.23;;
8230;SDS011;4156;50.908;6.974;2023-08-30T11:23:31;3.93;;;2.30;;
8230;SDS011;4156;50.908;6.974;2023-08-30T11:25:56;4.03;;;1.90;;
8230;SDS011;4156;50.908;6.974;2023-08-30T11:28:25;2.67;;;2.03;;
8230;SDS011;4156;50.908;6.974;2023-08-30T11:30:54;2.90;;;2.20;;
8230;SDS011;4156;50.908;6.974;2023-08-30T11:33:22;3.43;;;2.47;;
8230;SDS011;4156;50.908;6.974;2023-08-30T11:35:49;2.70;;;2.10;;
8230;SDS011;4156;50.908;6.974;2023-08-30T11:38:17;3.90;;;2.30;;
8230;SDS011;4156;50.908;6.974;2023-08-30T11:40:44;6.47;;;2.07;;
8230;SDS011;4156;50.908;6.974;2023-08-30T11:43:10;2.30;;;2.00;;
8230;SDS011;4156;50.908;6.974;2023-08-30T11:45:36;3.17;;;2.43;;
8230;SDS011;4156;50.908;6.974;2023-08-30T11:48:02;3.40;;;2.27;;
8230;SDS011;4156;50.908;6.974;2023-08-30T11:50:28;3.53;;;2.50;;
8230;SDS011;4156;50.908;6.974;2023-08-30T11:52:54;3.27;;;2.10;;
8230;SDS011;4156;50.908;6.974;2023-08-30T11:55:21;3.57;;;2.17;;
8230;SDS011;4156;50.908;6.974;2023-08-30T11:57:50;3.07;;;2.10;;
8230;SDS011;4156;50.908;6.974;2023-08-30T12:00:18;3.20;;;2.00;;
8230;SDS011;4156;50.908;6.974;2023-08-30T12:02:45;2.70;;;2.13;;
8230;SDS011;4156;50.908;6.974;2023-08-30T12:05:12;3.43;;;2.40;;
8230;SDS011;4156;50.908;6.974;2023-08-30T12:07:38;4.43;;;2.77;;
8230;SDS011;4156;50.908;6.974;2023-08-30T12:10:05;3.83;;;2.73;;
8230;SDS011;4156;50.908;6.974;2023-08-30T12:12:32;5.43;;;2.20;;
8230;SDS011;4156;50.908;6.974;2023-08-30T12:14:58;5.50;;;2.50;;
8230;SDS011;4156;50.908;6.974;2023-08-30T12:17:23;3.67;;;2.33;;
8230;SDS011;4156;50.908;6.974;2023-08-30T12:19:58;3.03;;;2.50;;
8230;SDS011;4156;50.908;6.974;2023-08-30T12:22:34;3.43;;;2.33;;
8230;SDS011;4156;50.908;6.974;2023-08-30T12:25:16;4.63;;;2.60;;
8230;SDS011;4156;50.908;6.974;2023-08-30T12:27:45;3.60;;;2.80;;
8230;SDS011;4156;50.908;6.974;2023-08-30T12:30:12;3.03;;;2.33;;
8230;SDS011;4156;50.908;6.974;2023-08-30T12:32:39;4.00;;;2.60;;
8230;SDS011;4156;50.908;6.974;2023-08-30T12:35:05;4.63;;;2.50;;
8230;SDS011;4156;50.908;6.974;2023-08-30T12:37:31;3.17;;;2.70;;
8230;SDS011;4156;50.908;6.974;2023-08-30T12:39:56;3.53;;;2.73;;
8230;SDS011;4156;50.908;6.974;2023-08-30T12:42:22;3.13;;;2.43;;
8230;SDS011;4156;50.908;6.974;2023-08-30T12:44:47;3.20;;;2.60;;
8230;SDS011;4156;50.908;6.974;2023-08-30T12:47:13;4.83;;;2.40;;
8230;SDS011;4156;50.908;6.974;2023-08-30T12:49:39;4.60;;;2.73;;
8230;SDS011;4156;50.908;6.974;2023-08-30T12:52:05;3.30;;;2.20;;
8230;SDS011;4156;50.908;6.974;2023-08-30T12:54:31;3.33;;;2.20;;
8230;SDS011;4156;50.908;6.974;2023-08-30T12:56:57;2.97;;;1.90;;
8230;SDS011;4156;50.908;6.974;2023-08-30T12:59:22;1.97;;;1.73;;
8230;SDS011;4156;50.908;6.974;2023-08-30T13:01:48;1.80;;;1.50;;
8230;SDS011;4156;50.908;6.974;2023-08-30T13:04:13;3.30;;;1.77;;
8230;SDS011;4156;50.908;6.974;2023-08-30T13:06:39;3.83;;;1.80;;
8230;SDS011;4156;50.908;6.974;2023-08-30T13:09:04;2.27;;;1.70;;
8230;SDS011;4156;50.908;6.974;2023-08-30T13:11:30;2.10;;;1.70;;
8230;SDS011;4156;50.908;6.974;2023-08-30T13:13:57;1.60;;;1.50;;
8230;SDS011;4156;50.908;6.974;2023-08-30T13:16:23;2.10;;;1.90;;
8230;SDS011;4156;50.908;6.974;2023-08-30T13:18:49;2.20;;;1.60;;
8230;SDS011;4156;50.908;6.974;2023-08-30T13:21:15;1.73;;;1.63;;
8230;SDS011;4156;50.908;6.974;2023-08-30T13:23:40;1.83;;;1.40;;
8230;SDS011;4156;50.908;6.974;2023-08-30T13:26:06;2.00;;;1.80;;
8230;SDS011;4156;50.908;6.974;2023-08-30T13:28:32;1.73;;;1.60;;
8230;SDS011;4156;50.908;6.974;2023-08-30T13:30:59;1.67;;;1.57;;
8230;SDS011;4156;50.908;6.974;2023-08-30T13:33:25;1.33;;;1.20;;
8230;SDS011;4156;50.908;6.974;2023-08-30T13:35:51;1.30;;;1.20;;
8230;SDS011;4156;50.908;6.974;2023-08-30T13:38:17;2.80;;;1.50;;
8230;SDS011;4156;50.908;6.974;2023-08-30T13:40:43;3.73;;;1.60;;
8230;SDS011;4156;50.908;6.974;2023-08-30T13:43:09;1.90;;;1.70;;
8230;SDS011;4156;50.908;6.974;2023-08-30T13:45:35;2.03;;;1.60;;
8230;SDS011;4156;50.908;6.974;2023-08-30T13:48:00;2.00;;;1.77;;
8230;SDS011;4156;50.908;6.974;2023-08-30T13:50:27;2.53;;;2.00;;
8230;SDS011;4156;50.908;6.974;2023-08-30T13:52:57;1.87;;;1.70;;
8230;SDS011;4156;50.908;6.974;2023-08-30T13:55:23;2.57;;;2.03;;
8230;SDS011;4156;50.908;6.974;2023-08-30T13:57:48;2.33;;;1.83;;
8230;SDS011;4156;50.908;6.974;2023-08-30T14:00:14;2.03;;;1.70;;
8230;SDS011;4156;50.908;6.974;2023-08-30T14:02:40;2.87;;;1.90;;
8230;SDS011;4156;50.908;6.974;2023-08-30T14:05:06;2.10;;;1.63;;
8230;SDS011;4156;50.908;6.974;2023-08-30T14:07:32;2.53;;;1.80;;
8230;SDS011;4156;50.908;6.974;2023-08-30T14:09:57;2.13;;;1.60;;
8230;SDS011;4156;50.908;6.974;2023-08-30T14:12:23;2.47;;;1.70;;
8230;SDS011;4156;50.908;6.974;2023-08-30T14:14:49;2.30;;;1.60;;
8230;SDS011;4156;50.908;6.974;2023-08-30T14:17:14;3.33;;;1.93;;
8230;SDS011;4156;50.908;6.974;2023-08-30T14:19:40;2.90;;;1.87;;
8230;SDS011;4156;50.908;6.974;2023-08-30T14:22:05;3.17;;;2.30;;
8230;SDS011;4156;50.908;6.974;2023-08-30T14:24:32;2.47;;;2.00;;
8230;SDS011;4156;50.908;6.974;2023-08-30T14:26:58;2.47;;;1.80;;
8230;SDS011;4156;50.908;6.974;2023-08-30T14:29:25;2.57;;;1.83;;
8230;SDS011;4156;50.908;6.974;2023-08-30T14:31:51;2.30;;;2.10;;
8230;SDS011;4156;50.908;6.974;2023-08-30T14:34:16;2.53;;;1.80;;
8230;SDS011;4156;50.908;6.974;2023-08-30T14:36:42;2.40;;;1.80;;
8230;SDS011;4156;50.908;6.974;2023-08-30T14:39:08;2.80;;;2.03;;
8230;SDS011;4156;50.908;6.974;2023-08-30T14:41:34;2.83;;;2.00;;
8230;SDS011;4156;50.908;6.974;2023-08-30T14:44:02;2.37;;;1.57;;
8230;SDS011;4156;50.908;6.974;2023-08-30T14:46:30;2.73;;;1.90;;
8230;SDS011;4156;50.908;6.974;2023-08-30T14:48:56;2.00;;;1.80;;
8230;SDS011;4156;50.908;6.974;2023-08-30T14:51:21;2.53;;;1.90;;
8230;SDS011;4156;50.908;6.974;2023-08-30T14:53:47;2.57;;;2.30;;
8230;SDS011;4156;50.908;6.974;2023-08-30T14:56:12;2.40;;;1.80;;
8230;SDS011;4156;50.908;6.974;2023-08-30T14:58:38;2.50;;;2.03;;
8230;SDS011;4156;50.908;6.974;2023-08-30T15:01:04;2.13;;;1.70;;
8230;SDS011;4156;50.908;6.974;2023-08-30T15:03:30;3.93;;;2.27;;
8230;SDS011;4156;50.908;6.974;2023-08-30T15:05:56;2.50;;;2.17;;
8230;SDS011;4156;50.908;6.974;2023-08-30T15:08:22;2.20;;;2.00;;
8230;SDS011;4156;50.908;6.974;2023-08-30T15:10:48;2.83;;;2.00;;
8230;SDS011;4156;50.908;6.974;2023-08-30T15:13:16;2.73;;;2.23;;
8230;SDS011;4156;50.908;6.974;2023-08-30T15:15:42;4.43;;;2.40;;
8230;SDS011;4156;50.908;6.974;2023-08-30T15:18:07;2.20;;;2.00;;
8230;SDS011;4156;50.908;6.974;2023-08-30T15:20:33;3.47;;;2.20;;